sensor_id;sensor_type;location;lat;lon;timestamp;pressure;altitude;pressure_sealevel;temperature
20867;BMP280;10593;48.398;10.698;2023-05-29T00:00:35;96168.47;;;23.31
20867;BMP280;10593;48.398;10.698;2023-05-29T00:03:01;96153.88;;;23.27
20867;BMP280;10593;48.398;10.698;2023-05-29T00:05:27;96163.75;;;23.23
20867;BMP280;10593;48.398;10.698;2023-05-29T00:07:53;96162.16;;;23.21
20867;BMP280;10593;48.398;10.698;2023-05-29T00:10:18;96165.94;;;23.17
20867;BMP280;10593;48.398;10.698;2023-05-29T00:12:44;96166.97;;;23.14
20867;BMP280;10593;48.398;10.698;2023-05-29T00:15:10;96162.75;;;23.12
20867;BMP280;10593;48.398;10.698;2023-05-29T00:17:36;96167.38;;;23.08
20867;BMP280;10593;48.398;10.698;2023-05-29T00:20:03;96164.03;;;23.06
20867;BMP280;10593;48.398;10.698;2023-05-29T00:22:32;96160.75;;;23.03
20867;BMP280;10593;48.398;10.698;2023-05-29T00:24:58;96167.03;;;23.00
20867;BMP280;10593;48.398;10.698;2023-05-29T00:27:24;96170.69;;;22.98
20867;BMP280;10593;48.398;10.698;2023-05-29T00:29:50;96169.25;;;22.94
20867;BMP280;10593;48.398;10.698;2023-05-29T00:32:15;96169.44;;;22.91
20867;BMP280;10593;48.398;10.698;2023-05-29T00:34:41;96167.03;;;22.88
20867;BMP280;10593;48.398;10.698;2023-05-29T00:37:06;96175.94;;;22.85
20867;BMP280;10593;48.398;10.698;2023-05-29T00:39:32;96165.66;;;22.82
20867;BMP280;10593;48.398;10.698;2023-05-29T00:41:58;96165.88;;;22.79
20867;BMP280;10593;48.398;10.698;2023-05-29T00:44:23;96163.44;;;22.76
20867;BMP280;10593;48.398;10.698;2023-05-29T00:46:52;96160.22;;;22.73
20867;BMP280;10593;48.398;10.698;2023-05-29T00:49:20;96163.88;;;22.70
20867;BMP280;10593;48.398;10.698;2023-05-29T00:51:48;96156.22;;;22.67
20867;BMP280;10593;48.398;10.698;2023-05-29T00:54:21;96153.16;;;22.61
20867;BMP280;10593;48.398;10.698;2023-05-29T00:56:49;96164.59;;;22.60
20867;BMP280;10593;48.398;10.698;2023-05-29T00:59:15;96163.09;;;22.56
20867;BMP280;10593;48.398;10.698;2023-05-29T01:01:42;96160.59;;;22.54
20867;BMP280;10593;48.398;10.698;2023-05-29T01:04:11;96157.22;;;22.52
20867;BMP280;10593;48.398;10.698;2023-05-29T01:06:38;96158.25;;;22.50
20867;BMP280;10593;48.398;10.698;2023-05-29T01:09:05;96160.16;;;22.48
20867;BMP280;10593;48.398;10.698;2023-05-29T01:11:39;96165.56;;;22.45
20867;BMP280;10593;48.398;10.698;2023-05-29T01:14:13;96166.63;;;22.42
20867;BMP280;10593;48.398;10.698;2023-05-29T01:16:57;96168.59;;;22.39
20867;BMP280;10593;48.398;10.698;2023-05-29T01:20:07;96172.41;;;22.33
20867;BMP280;10593;48.398;10.698;2023-05-29T01:28:21;96166.28;;;22.20
20867;BMP280;10593;48.398;10.698;2023-05-29T01:30:50;96173.41;;;22.18
20867;BMP280;10593;48.398;10.698;2023-05-29T01:33:17;96162.28;;;22.15
20867;BMP280;10593;48.398;10.698;2023-05-29T01:35:43;96167.72;;;22.12
20867;BMP280;10593;48.398;10.698;2023-05-29T01:38:08;96162.69;;;22.09
20867;BMP280;10593;48.398;10.698;2023-05-29T01:40:34;96168.13;;;22.06
20867;BMP280;10593;48.398;10.698;2023-05-29T01:43:01;96165.69;;;22.03
20867;BMP280;10593;48.398;10.698;2023-05-29T01:45:28;96167.56;;;22.01
20867;BMP280;10593;48.398;10.698;2023-05-29T01:47:54;96160.84;;;21.97
20867;BMP280;10593;48.398;10.698;2023-05-29T01:50:23;96157.50;;;21.95
20867;BMP280;10593;48.398;10.698;2023-05-29T01:52:49;96155.09;;;21.92
20867;BMP280;10593;48.398;10.698;2023-05-29T01:55:15;96160.47;;;21.89
20867;BMP280;10593;48.398;10.698;2023-05-29T01:57:41;96160.69;;;21.86
20867;BMP280;10593;48.398;10.698;2023-05-29T02:00:08;96160.03;;;21.82
20867;BMP280;10593;48.398;10.698;2023-05-29T02:02:38;96155.00;;;21.79
20867;BMP280;10593;48.398;10.698;2023-05-29T02:05:06;96161.25;;;21.77
20867;BMP280;10593;48.398;10.698;2023-05-29T02:07:32;96168.47;;;21.73
20867;BMP280;10593;48.398;10.698;2023-05-29T02:09:58;96160.78;;;21.70
20867;BMP280;10593;48.398;10.698;2023-05-29T02:12:23;96165.41;;;21.67
20867;BMP280;10593;48.398;10.698;2023-05-29T02:14:49;96162.03;;;21.65
20867;BMP280;10593;48.398;10.698;2023-05-29T02:17:15;96157.81;;;21.62
20867;BMP280;10593;48.398;10.698;2023-05-29T02:19:40;96157.06;;;21.60
20867;BMP280;10593;48.398;10.698;2023-05-29T02:22:07;96163.31;;;21.58
20867;BMP280;10593;48.398;10.698;2023-05-29T02:24:33;96161.72;;;21.55
20867;BMP280;10593;48.398;10.698;2023-05-29T02:26:59;96159.31;;;21.52
20867;BMP280;10593;48.398;10.698;2023-05-29T02:29:24;96158.63;;;21.49
20867;BMP280;10593;48.398;10.698;2023-05-29T02:31:50;96163.13;;;21.47
20867;BMP280;10593;48.398;10.698;2023-05-29T02:34:16;96164.19;;;21.44
20867;BMP280;10593;48.398;10.698;2023-05-29T02:36:41;96169.56;;;21.41
20867;BMP280;10593;48.398;10.698;2023-05-29T02:39:07;96162.78;;;21.39
20867;BMP280;10593;48.398;10.698;2023-05-29T02:41:33;96170.78;;;21.36
20867;BMP280;10593;48.398;10.698;2023-05-29T02:43:58;96175.28;;;21.34
20867;BMP280;10593;48.398;10.698;2023-05-29T02:46:24;96165.88;;;21.32
20867;BMP280;10593;48.398;10.698;2023-05-29T02:48:50;96168.63;;;21.28
20867;BMP280;10593;48.398;10.698;2023-05-29T02:51:15;96169.69;;;21.26
20867;BMP280;10593;48.398;10.698;2023-05-29T02:53:41;96169.84;;;21.23
20867;BMP280;10593;48.398;10.698;2023-05-29T02:56:07;96165.66;;;21.21
20867;BMP280;10593;48.398;10.698;2023-05-29T02:58:34;96161.53;;;21.17
20867;BMP280;10593;48.398;10.698;2023-05-29T03:01:01;96159.97;;;21.14
20867;BMP280;10593;48.398;10.698;2023-05-29T03:03:29;96162.78;;;21.11
20867;BMP280;10593;48.398;10.698;2023-05-29T03:05:55;96167.22;;;21.09
20867;BMP280;10593;48.398;10.698;2023-05-29T03:08:21;96157.81;;;21.07
20867;BMP280;10593;48.398;10.698;2023-05-29T03:10:46;96167.53;;;21.05
20867;BMP280;10593;48.398;10.698;2023-05-29T03:13:13;96169.47;;;21.01
20867;BMP280;10593;48.398;10.698;2023-05-29T03:15:39;96166.00;;;21.01
20867;BMP280;10593;48.398;10.698;2023-05-29T03:18:04;96161.81;;;20.98
20867;BMP280;10593;48.398;10.698;2023-05-29T03:20:30;96162.84;;;20.96
20867;BMP280;10593;48.398;10.698;2023-05-29T03:22:56;96167.31;;;20.94
20867;BMP280;10593;48.398;10.698;2023-05-29T03:25:22;96164.78;;;20.92
20867;BMP280;10593;48.398;10.698;2023-05-29T03:27:48;96173.63;;;20.90
20867;BMP280;10593;48.398;10.698;2023-05-29T03:30:13;96177.28;;;20.87
20867;BMP280;10593;48.398;10.698;2023-05-29T03:32:39;96178.31;;;20.85
20867;BMP280;10593;48.398;10.698;2023-05-29T03:35:06;96180.13;;;20.83
20867;BMP280;10593;48.398;10.698;2023-05-29T03:37:31;96182.94;;;20.80
20867;BMP280;10593;48.398;10.698;2023-05-29T03:39:57;96176.09;;;20.77
20867;BMP280;10593;48.398;10.698;2023-05-29T03:42:23;96176.28;;;20.74
20867;BMP280;10593;48.398;10.698;2023-05-29T03:44:48;96180.84;;;20.71
20867;BMP280;10593;48.398;10.698;2023-05-29T03:47:14;96185.31;;;20.69
20867;BMP280;10593;48.398;10.698;2023-05-29T03:49:40;96183.66;;;20.68
20867;BMP280;10593;48.398;10.698;2023-05-29T03:52:05;96185.41;;;20.67
20867;BMP280;10593;48.398;10.698;2023-05-29T03:54:32;96184.66;;;20.65
20867;BMP280;10593;48.398;10.698;2023-05-29T03:56:58;96185.59;;;20.64
20867;BMP280;10593;48.398;10.698;2023-05-29T03:59:24;96185.78;;;20.61
20867;BMP280;10593;48.398;10.698;2023-05-29T04:01:49;96185.03;;;20.59
20867;BMP280;10593;48.398;10.698;2023-05-29T04:04:15;96187.72;;;20.58
20867;BMP280;10593;48.398;10.698;2023-05-29T04:06:41;96185.19;;;20.56
20867;BMP280;10593;48.398;10.698;2023-05-29T04:09:07;96191.31;;;20.55
20867;BMP280;10593;48.398;10.698;2023-05-29T04:11:33;96188.81;;;20.54
20867;BMP280;10593;48.398;10.698;2023-05-29T04:14:00;96195.81;;;20.53
20867;BMP280;10593;48.398;10.698;2023-05-29T04:16:27;96196.72;;;20.52
20867;BMP280;10593;48.398;10.698;2023-05-29T04:18:54;96195.81;;;20.53
20867;BMP280;10593;48.398;10.698;2023-05-29T04:21:20;96201.03;;;20.53
20867;BMP280;10593;48.398;10.698;2023-05-29T04:23:46;96198.41;;;20.53
20867;BMP280;10593;48.398;10.698;2023-05-29T04:26:12;96193.19;;;20.53
20867;BMP280;10593;48.398;10.698;2023-05-29T04:28:39;96202.72;;;20.54
20867;BMP280;10593;48.398;10.698;2023-05-29T04:31:05;96207.00;;;20.55
20867;BMP280;10593;48.398;10.698;2023-05-29T04:33:33;96204.31;;;20.57
20867;BMP280;10593;48.398;10.698;2023-05-29T04:36:02;96212.06;;;20.58
20867;BMP280;10593;48.398;10.698;2023-05-29T04:38:29;96210.19;;;20.60
20867;BMP280;10593;48.398;10.698;2023-05-29T04:40:56;96211.78;;;20.63
20867;BMP280;10593;48.398;10.698;2023-05-29T04:43:25;96216.94;;;20.64
20867;BMP280;10593;48.398;10.698;2023-05-29T04:45:54;96215.06;;;20.66
20867;BMP280;10593;48.398;10.698;2023-05-29T04:48:19;96221.88;;;20.69
20867;BMP280;10593;48.398;10.698;2023-05-29T04:50:45;96225.19;;;20.72
20867;BMP280;10593;48.398;10.698;2023-05-29T04:53:11;96230.28;;;20.74
20867;BMP280;10593;48.398;10.698;2023-05-29T04:55:36;96224.06;;;20.76
20867;BMP280;10593;48.398;10.698;2023-05-29T04:58:02;96222.19;;;20.78
20867;BMP280;10593;48.398;10.698;2023-05-29T05:00:28;96226.31;;;20.82
20867;BMP280;10593;48.398;10.698;2023-05-29T05:02:54;96230.47;;;20.86
20867;BMP280;10593;48.398;10.698;2023-05-29T05:05:21;96234.59;;;20.90
20867;BMP280;10593;48.398;10.698;2023-05-29T05:07:46;96241.31;;;20.94
20867;BMP280;10593;48.398;10.698;2023-05-29T05:10:12;96232.38;;;20.98
20867;BMP280;10593;48.398;10.698;2023-05-29T05:12:38;96227.72;;;21.03
20867;BMP280;10593;48.398;10.698;2023-05-29T05:15:05;96239.56;;;21.09
20867;BMP280;10593;48.398;10.698;2023-05-29T05:17:31;96232.28;;;21.14
20867;BMP280;10593;48.398;10.698;2023-05-29T05:19:56;96239.03;;;21.18
20867;BMP280;10593;48.398;10.698;2023-05-29T05:22:22;96232.59;;;21.23
20867;BMP280;10593;48.398;10.698;2023-05-29T05:24:48;96237.47;;;21.29
20867;BMP280;10593;48.398;10.698;2023-05-29T05:27:13;96245.88;;;21.34
20867;BMP280;10593;48.398;10.698;2023-05-29T05:29:39;96237.66;;;21.40
20867;BMP280;10593;48.398;10.698;2023-05-29T05:32:05;96244.31;;;21.45
20867;BMP280;10593;48.398;10.698;2023-05-29T05:34:32;96249.16;;;21.51
20867;BMP280;10593;48.398;10.698;2023-05-29T05:36:57;96243.53;;;21.57
20867;BMP280;10593;48.398;10.698;2023-05-29T05:39:23;96247.59;;;21.63
20867;BMP280;10593;48.398;10.698;2023-05-29T05:41:48;96238.44;;;21.70
20867;BMP280;10593;48.398;10.698;2023-05-29T05:44:14;96244.97;;;21.77
20867;BMP280;10593;48.398;10.698;2023-05-29T05:46:40;96247.22;;;21.83
20867;BMP280;10593;48.398;10.698;2023-05-29T05:49:05;96245.06;;;21.89
20867;BMP280;10593;48.398;10.698;2023-05-29T05:51:31;96237.69;;;21.96
20867;BMP280;10593;48.398;10.698;2023-05-29T05:53:57;96250.38;;;22.02
20867;BMP280;10593;48.398;10.698;2023-05-29T05:56:22;96242.25;;;22.06
20867;BMP280;10593;48.398;10.698;2023-05-29T05:58:48;96241.88;;;22.12
20867;BMP280;10593;48.398;10.698;2023-05-29T06:01:15;96245.78;;;22.19
20867;BMP280;10593;48.398;10.698;2023-05-29T06:03:41;96249.88;;;22.23
20867;BMP280;10593;48.398;10.698;2023-05-29T06:06:07;96245.09;;;22.30
20867;BMP280;10593;48.398;10.698;2023-05-29T06:08:34;96245.66;;;22.35
20867;BMP280;10593;48.398;10.698;2023-05-29T06:11:00;96250.63;;;22.39
20867;BMP280;10593;48.398;10.698;2023-05-29T06:13:25;96259.03;;;22.44
20867;BMP280;10593;48.398;10.698;2023-05-29T06:15:51;96254.44;;;22.48
20867;BMP280;10593;48.398;10.698;2023-05-29T06:18:17;96254.25;;;22.51
20867;BMP280;10593;48.398;10.698;2023-05-29T06:20:42;96261.69;;;22.57
20867;BMP280;10593;48.398;10.698;2023-05-29T06:23:08;96262.47;;;22.59
20867;BMP280;10593;48.398;10.698;2023-05-29T06:25:34;96264.66;;;22.65
20867;BMP280;10593;48.398;10.698;2023-05-29T06:28:01;96263.53;;;22.69
20867;BMP280;10593;48.398;10.698;2023-05-29T06:30:27;96270.06;;;22.76
20867;BMP280;10593;48.398;10.698;2023-05-29T06:32:53;96270.59;;;22.81
20867;BMP280;10593;48.398;10.698;2023-05-29T06:35:19;96273.66;;;22.87
20867;BMP280;10593;48.398;10.698;2023-05-29T06:37:46;96281.22;;;22.92
20867;BMP280;10593;48.398;10.698;2023-05-29T06:40:13;96275.56;;;22.98
20867;BMP280;10593;48.398;10.698;2023-05-29T06:42:38;96277.06;;;23.02
20867;BMP280;10593;48.398;10.698;2023-05-29T06:45:04;96284.63;;;23.06
20867;BMP280;10593;48.398;10.698;2023-05-29T06:47:31;96284.41;;;23.09
20867;BMP280;10593;48.398;10.698;2023-05-29T06:49:56;96279.84;;;23.13
20867;BMP280;10593;48.398;10.698;2023-05-29T06:52:22;96290.88;;;23.18
20867;BMP280;10593;48.398;10.698;2023-05-29T06:54:48;96282.78;;;23.21
20867;BMP280;10593;48.398;10.698;2023-05-29T06:57:13;96282.47;;;23.25
20867;BMP280;10593;48.398;10.698;2023-05-29T06:59:39;96283.94;;;23.29
20867;BMP280;10593;48.398;10.698;2023-05-29T07:02:05;96283.66;;;23.34
20867;BMP280;10593;48.398;10.698;2023-05-29T07:04:31;96290.34;;;23.38
20867;BMP280;10593;48.398;10.698;2023-05-29T07:06:56;96286.59;;;23.42
20867;BMP280;10593;48.398;10.698;2023-05-29T07:09:22;96286.31;;;23.46
20867;BMP280;10593;48.398;10.698;2023-05-29T07:11:48;96287.03;;;23.48
20867;BMP280;10593;48.398;10.698;2023-05-29T07:14:13;96287.66;;;23.52
20867;BMP280;10593;48.398;10.698;2023-05-29T07:16:39;96290.81;;;23.57
20867;BMP280;10593;48.398;10.698;2023-05-29T07:19:05;96283.38;;;23.63
20867;BMP280;10593;48.398;10.698;2023-05-29T07:21:31;96287.47;;;23.67
20867;BMP280;10593;48.398;10.698;2023-05-29T07:23:59;96289.03;;;23.69
20867;BMP280;10593;48.398;10.698;2023-05-29T07:26:24;96294.06;;;23.72
20867;BMP280;10593;48.398;10.698;2023-05-29T07:28:50;96292.91;;;23.76
20867;BMP280;10593;48.398;10.698;2023-05-29T07:31:16;96286.53;;;23.80
20867;BMP280;10593;48.398;10.698;2023-05-29T07:33:42;96295.88;;;23.84
20867;BMP280;10593;48.398;10.698;2023-05-29T07:36:07;96295.66;;;23.87
20867;BMP280;10593;48.398;10.698;2023-05-29T07:38:33;96289.25;;;23.91
20867;BMP280;10593;48.398;10.698;2023-05-29T07:40:59;96295.03;;;23.96
20867;BMP280;10593;48.398;10.698;2023-05-29T07:43:25;96290.44;;;24.00
20867;BMP280;10593;48.398;10.698;2023-05-29T07:45:50;96297.97;;;24.04
20867;BMP280;10593;48.398;10.698;2023-05-29T07:48:16;96300.28;;;24.09
20867;BMP280;10593;48.398;10.698;2023-05-29T07:50:41;96297.31;;;24.13
20867;BMP280;10593;48.398;10.698;2023-05-29T07:53:07;96303.09;;;24.18
20867;BMP280;10593;48.398;10.698;2023-05-29T07:55:34;96308.88;;;24.23
20867;BMP280;10593;48.398;10.698;2023-05-29T07:58:01;96304.25;;;24.27
20867;BMP280;10593;48.398;10.698;2023-05-29T08:00:27;96296.03;;;24.31
20867;BMP280;10593;48.398;10.698;2023-05-29T08:02:53;96310.66;;;24.35
20867;BMP280;10593;48.398;10.698;2023-05-29T08:05:19;96299.81;;;24.40
20867;BMP280;10593;48.398;10.698;2023-05-29T08:07:45;96303.03;;;24.43
20867;BMP280;10593;48.398;10.698;2023-05-29T08:10:12;96305.34;;;24.48
20867;BMP280;10593;48.398;10.698;2023-05-29T08:12:37;96299.88;;;24.51
20867;BMP280;10593;48.398;10.698;2023-05-29T08:15:03;96306.72;;;24.53
20867;BMP280;10593;48.398;10.698;2023-05-29T08:17:29;96308.19;;;24.57
20867;BMP280;10593;48.398;10.698;2023-05-29T08:19:55;96299.34;;;24.58
20867;BMP280;10593;48.398;10.698;2023-05-29T08:22:28;96300.19;;;24.59
20867;BMP280;10593;48.398;10.698;2023-05-29T08:24:55;96293.91;;;24.61
20867;BMP280;10593;48.398;10.698;2023-05-29T08:27:21;96297.25;;;24.63
20867;BMP280;10593;48.398;10.698;2023-05-29T08:29:46;96294.28;;;24.68
20867;BMP280;10593;48.398;10.698;2023-05-29T08:32:12;96302.06;;;24.69
20867;BMP280;10593;48.398;10.698;2023-05-29T08:34:38;96300.16;;;24.71
20867;BMP280;10593;48.398;10.698;2023-05-29T08:37:04;96298.25;;;24.73
20867;BMP280;10593;48.398;10.698;2023-05-29T08:39:30;96302.44;;;24.76
20867;BMP280;10593;48.398;10.698;2023-05-29T08:42:04;96303.06;;;24.79
20867;BMP280;10593;48.398;10.698;2023-05-29T08:44:33;96291.50;;;24.82
20867;BMP280;10593;48.398;10.698;2023-05-29T08:47:02;96297.34;;;24.85
20867;BMP280;10593;48.398;10.698;2023-05-29T08:49:41;96297.97;;;24.89
20867;BMP280;10593;48.398;10.698;2023-05-29T08:52:15;96295.97;;;24.92
20867;BMP280;10593;48.398;10.698;2023-05-29T08:54:42;96296.47;;;24.97
20867;BMP280;10593;48.398;10.698;2023-05-29T08:57:09;96299.63;;;25.02
20867;BMP280;10593;48.398;10.698;2023-05-29T08:59:39;96299.25;;;25.07
20867;BMP280;10593;48.398;10.698;2023-05-29T09:02:05;96306.81;;;25.11
20867;BMP280;10593;48.398;10.698;2023-05-29T09:04:32;96297.75;;;25.15
20867;BMP280;10593;48.398;10.698;2023-05-29T09:06:58;96299.00;;;25.22
20867;BMP280;10593;48.398;10.698;2023-05-29T09:09:27;96301.19;;;25.28
20867;BMP280;10593;48.398;10.698;2023-05-29T09:11:53;96292.09;;;25.32
20867;BMP280;10593;48.398;10.698;2023-05-29T09:14:52;96298.81;;;25.36
20867;BMP280;10593;48.398;10.698;2023-05-29T09:17:17;96301.94;;;25.41
20867;BMP280;10593;48.398;10.698;2023-05-29T09:19:43;96306.97;;;25.44
20867;BMP280;10593;48.398;10.698;2023-05-29T09:22:13;96297.06;;;25.48
20867;BMP280;10593;48.398;10.698;2023-05-29T09:24:48;96302.91;;;25.51
20867;BMP280;10593;48.398;10.698;2023-05-29T09:27:14;96307.97;;;25.54
20867;BMP280;10593;48.398;10.698;2023-05-29T09:29:42;96303.28;;;25.58
20867;BMP280;10593;48.398;10.698;2023-05-29T09:32:10;96299.50;;;25.62
20867;BMP280;10593;48.398;10.698;2023-05-29T09:34:37;96301.03;;;25.64
20867;BMP280;10593;48.398;10.698;2023-05-29T09:37:08;96305.13;;;25.68
20867;BMP280;10593;48.398;10.698;2023-05-29T09:39:44;96300.44;;;25.72
20867;BMP280;10593;48.398;10.698;2023-05-29T09:42:10;96301.06;;;25.75
20867;BMP280;10593;48.398;10.698;2023-05-29T09:44:37;96307.03;;;25.77
20867;BMP280;10593;48.398;10.698;2023-05-29T09:47:03;96315.56;;;25.81
20867;BMP280;10593;48.398;10.698;2023-05-29T09:49:32;96301.19;;;25.84
20867;BMP280;10593;48.398;10.698;2023-05-29T09:51:58;96306.25;;;25.88
20867;BMP280;10593;48.398;10.698;2023-05-29T09:54:27;96306.03;;;25.91
20867;BMP280;10593;48.398;10.698;2023-05-29T09:56:57;96298.00;;;25.92
20867;BMP280;10593;48.398;10.698;2023-05-29T09:59:24;96291.75;;;25.93
20867;BMP280;10593;48.398;10.698;2023-05-29T10:02:04;96304.72;;;25.96
20867;BMP280;10593;48.398;10.698;2023-05-29T10:04:33;96307.22;;;25.97
20867;BMP280;10593;48.398;10.698;2023-05-29T10:07:47;96292.88;;;26.01
20867;BMP280;10593;48.398;10.698;2023-05-29T10:10:02;96296.22;;;26.03
20867;BMP280;10593;48.398;10.698;2023-05-29T10:12:31;96291.78;;;26.04
20867;BMP280;10593;48.398;10.698;2023-05-29T10:14:59;96289.13;;;26.04
20867;BMP280;10593;48.398;10.698;2023-05-29T10:17:32;96293.44;;;26.05
20867;BMP280;10593;48.398;10.698;2023-05-29T10:20:01;96295.13;;;26.06
20867;BMP280;10593;48.398;10.698;2023-05-29T10:22:28;96286.88;;;26.10
20867;BMP280;10593;48.398;10.698;2023-05-29T10:24:56;96291.06;;;26.13
20867;BMP280;10593;48.398;10.698;2023-05-29T10:27:23;96295.28;;;26.15
20867;BMP280;10593;48.398;10.698;2023-05-29T10:30:24;96287.22;;;26.17
20867;BMP280;10593;48.398;10.698;2023-05-29T10:33:32;96282.66;;;26.19
20867;BMP280;10593;48.398;10.698;2023-05-29T10:36:22;96284.13;;;26.23
20867;BMP280;10593;48.398;10.698;2023-05-29T10:38:50;96282.06;;;26.26
20867;BMP280;10593;48.398;10.698;2023-05-29T10:43:54;96275.47;;;26.32
20867;BMP280;10593;48.398;10.698;2023-05-29T10:46:20;96281.59;;;26.32
20867;BMP280;10593;48.398;10.698;2023-05-29T10:48:49;96286.72;;;26.34
20867;BMP280;10593;48.398;10.698;2023-05-29T10:51:27;96284.00;;;26.35
20867;BMP280;10593;48.398;10.698;2023-05-29T10:53:53;96281.25;;;26.37
20867;BMP280;10593;48.398;10.698;2023-05-29T10:56:28;96281.97;;;26.39
20867;BMP280;10593;48.398;10.698;2023-05-29T10:58:57;96283.63;;;26.40
20867;BMP280;10593;48.398;10.698;2023-05-29T11:01:24;96285.31;;;26.41
20867;BMP280;10593;48.398;10.698;2023-05-29T11:06:50;96274.50;;;26.44
20867;BMP280;10593;48.398;10.698;2023-05-29T11:09:37;96270.91;;;26.45
20867;BMP280;10593;48.398;10.698;2023-05-29T11:12:23;96273.69;;;26.43
20867;BMP280;10593;48.398;10.698;2023-05-29T11:15:10;96274.50;;;26.44
20867;BMP280;10593;48.398;10.698;2023-05-29T11:20:16;96280.06;;;26.52
20867;BMP280;10593;48.398;10.698;2023-05-29T11:23:06;96280.75;;;26.54
20867;BMP280;10593;48.398;10.698;2023-05-29T11:25:38;96275.25;;;26.57
20867;BMP280;10593;48.398;10.698;2023-05-29T11:28:05;96268.88;;;26.59
20867;BMP280;10593;48.398;10.698;2023-05-29T11:30:46;96272.13;;;26.63
20867;BMP280;10593;48.398;10.698;2023-05-29T11:33:27;96258.69;;;26.66
20867;BMP280;10593;48.398;10.698;2023-05-29T11:35:58;96275.34;;;26.66
20867;BMP280;10593;48.398;10.698;2023-05-29T11:38:26;96277.00;;;26.67
20867;BMP280;10593;48.398;10.698;2023-05-29T11:40:54;96270.66;;;26.70
20867;BMP280;10593;48.398;10.698;2023-05-29T11:43:21;96264.31;;;26.72
20867;BMP280;10593;48.398;10.698;2023-05-29T11:45:47;96275.44;;;26.76
20867;BMP280;10593;48.398;10.698;2023-05-29T11:48:12;96268.25;;;26.78
20867;BMP280;10593;48.398;10.698;2023-05-29T11:50:38;96268.81;;;26.81
20867;BMP280;10593;48.398;10.698;2023-05-29T11:53:06;96274.94;;;26.82
20867;BMP280;10593;48.398;10.698;2023-05-29T11:55:33;96271.22;;;26.84
20867;BMP280;10593;48.398;10.698;2023-05-29T11:58:00;96263.31;;;26.84
20867;BMP280;10593;48.398;10.698;2023-05-29T12:00:34;96268.44;;;26.86
20867;BMP280;10593;48.398;10.698;2023-05-29T12:03:00;96275.28;;;26.88
20867;BMP280;10593;48.398;10.698;2023-05-29T12:05:45;96276.84;;;26.91
20867;BMP280;10593;48.398;10.698;2023-05-29T12:08:11;96266.16;;;26.92
20867;BMP280;10593;48.398;10.698;2023-05-29T12:10:37;96267.59;;;26.96
20867;BMP280;10593;48.398;10.698;2023-05-29T12:13:03;96265.50;;;27.00
20867;BMP280;10593;48.398;10.698;2023-05-29T12:15:28;96257.38;;;27.03
20867;BMP280;10593;48.398;10.698;2023-05-29T12:17:55;96263.34;;;27.05
20867;BMP280;10593;48.398;10.698;2023-05-29T12:20:25;96265.75;;;27.08
20867;BMP280;10593;48.398;10.698;2023-05-29T12:23:00;96260.22;;;27.11
20867;BMP280;10593;48.398;10.698;2023-05-29T12:25:27;96262.63;;;27.14
20867;BMP280;10593;48.398;10.698;2023-05-29T12:27:56;96257.09;;;27.17
20867;BMP280;10593;48.398;10.698;2023-05-29T12:30:24;96265.72;;;27.19
20867;BMP280;10593;48.398;10.698;2023-05-29T12:32:51;96270.88;;;27.20
20867;BMP280;10593;48.398;10.698;2023-05-29T12:35:20;96267.13;;;27.23
20867;BMP280;10593;48.398;10.698;2023-05-29T12:38:01;96262.56;;;27.25
20867;BMP280;10593;48.398;10.698;2023-05-29T12:40:31;96275.66;;;27.26
20867;BMP280;10593;48.398;10.698;2023-05-29T12:43:02;96258.69;;;27.29
20867;BMP280;10593;48.398;10.698;2023-05-29T12:45:30;96262.91;;;27.31
20867;BMP280;10593;48.398;10.698;2023-05-29T12:48:01;96268.75;;;27.35
20867;BMP280;10593;48.398;10.698;2023-05-29T12:50:38;96269.59;;;27.35
20867;BMP280;10593;48.398;10.698;2023-05-29T12:53:09;96273.78;;;27.38
20867;BMP280;10593;48.398;10.698;2023-05-29T12:55:37;96270.16;;;27.39
20867;BMP280;10593;48.398;10.698;2023-05-29T12:58:05;96262.97;;;27.41
20867;BMP280;10593;48.398;10.698;2023-05-29T13:00:33;96265.59;;;27.41
20867;BMP280;10593;48.398;10.698;2023-05-29T13:02:58;96258.41;;;27.43
20867;BMP280;10593;48.398;10.698;2023-05-29T13:05:24;96257.44;;;27.44
20867;BMP280;10593;48.398;10.698;2023-05-29T13:07:51;96269.69;;;27.45
20867;BMP280;10593;48.398;10.698;2023-05-29T13:10:18;96263.44;;;27.46
20867;BMP280;10593;48.398;10.698;2023-05-29T13:12:45;96268.44;;;27.49
20867;BMP280;10593;48.398;10.698;2023-05-29T13:15:13;96262.09;;;27.51
20867;BMP280;10593;48.398;10.698;2023-05-29T13:17:40;96260.16;;;27.53
20867;BMP280;10593;48.398;10.698;2023-05-29T13:20:11;96266.13;;;27.55
20867;BMP280;10593;48.398;10.698;2023-05-29T13:22:38;96267.69;;;27.58
20867;BMP280;10593;48.398;10.698;2023-05-29T13:25:06;96261.28;;;27.60
20867;BMP280;10593;48.398;10.698;2023-05-29T13:27:38;96261.06;;;27.63
20867;BMP280;10593;48.398;10.698;2023-05-29T13:30:06;96252.97;;;27.65
20867;BMP280;10593;48.398;10.698;2023-05-29T13:32:32;96256.31;;;27.67
20867;BMP280;10593;48.398;10.698;2023-05-29T13:34:58;96253.56;;;27.68
20867;BMP280;10593;48.398;10.698;2023-05-29T13:37:24;96249.94;;;27.69
20867;BMP280;10593;48.398;10.698;2023-05-29T13:39:50;96256.91;;;27.70
20867;BMP280;10593;48.398;10.698;2023-05-29T13:42:17;96251.50;;;27.72
20867;BMP280;10593;48.398;10.698;2023-05-29T13:44:43;96246.09;;;27.73
20867;BMP280;10593;48.398;10.698;2023-05-29T13:47:08;96245.97;;;27.75
20867;BMP280;10593;48.398;10.698;2023-05-29T13:49:34;96243.94;;;27.78
20867;BMP280;10593;48.398;10.698;2023-05-29T13:52:02;96241.03;;;27.81
20867;BMP280;10593;48.398;10.698;2023-05-29T13:54:27;96237.28;;;27.84
20867;BMP280;10593;48.398;10.698;2023-05-29T13:56:57;96236.16;;;27.86
20867;BMP280;10593;48.398;10.698;2023-05-29T13:59:24;96238.81;;;27.86
20867;BMP280;10593;48.398;10.698;2023-05-29T14:01:50;96243.97;;;27.88
20867;BMP280;10593;48.398;10.698;2023-05-29T14:04:16;96232.69;;;27.86
20867;BMP280;10593;48.398;10.698;2023-05-29T14:06:41;96229.22;;;27.85
20867;BMP280;10593;48.398;10.698;2023-05-29T14:09:07;96225.47;;;27.88
20867;BMP280;10593;48.398;10.698;2023-05-29T14:11:36;96233.25;;;27.89
20867;BMP280;10593;48.398;10.698;2023-05-29T14:14:03;96226.88;;;27.92